sensor_id;sensor_type;location;lat;lon;timestamp;pressure;altitude;pressure_sealevel;temperature;humidity
70206;BME280;57593;55.896;37.396;2023-03-19T00:00:23;100710.50;;;1.91;55.05
70206;BME280;57593;55.896;37.396;2023-03-19T00:00:54;100708.75;;;1.97;54.79
70206;BME280;57593;55.896;37.396;2023-03-19T00:01:25;100711.44;;;1.85;54.60
70206;BME280;57593;55.896;37.396;2023-03-19T00:01:57;100709.72;;;1.91;55.10
70206;BME280;57593;55.896;37.396;2023-03-19T00:02:27;100713.66;;;1.93;54.96
70206;BME280;57593;55.896;37.396;2023-03-19T00:02:58;100713.81;;;1.87;54.49
70206;BME280;57593;55.896;37.396;2023-03-19T00:03:29;100709.78;;;1.96;54.13
70206;BME280;57593;55.896;37.396;2023-03-19T00:04:00;100710.19;;;1.88;54.14
70206;BME280;57593;55.896;37.396;2023-03-19T00:04:30;100709.41;;;1.70;54.70
70206;BME280;57593;55.896;37.396;2023-03-19T00:05:02;100713.50;;;1.66;55.08
70206;BME280;57593;55.896;37.396;2023-03-19T00:05:33;100710.50;;;1.74;54.77
70206;BME280;57593;55.896;37.396;2023-03-19T00:06:05;100702.63;;;1.69;55.05
70206;BME280;57593;55.896;37.396;2023-03-19T00:06:35;100703.72;;;1.73;54.65
70206;BME280;57593;55.896;37.396;2023-03-19T00:07:06;100694.72;;;1.64;54.89
70206;BME280;57593;55.896;37.396;2023-03-19T00:07:37;100702.44;;;1.59;54.78
70206;BME280;57593;55.896;37.396;2023-03-19T00:08:07;100700.56;;;1.71;54.92
70206;BME280;57593;55.896;37.396;2023-03-19T00:08:38;100701.13;;;1.56;55.37
70206;BME280;57593;55.896;37.396;2023-03-19T00:09:09;100703.09;;;1.66;55.76
70206;BME280;57593;55.896;37.396;2023-03-19T00:09:58;100704.91;;;1.66;55.29
70206;BME280;57593;55.896;37.396;2023-03-19T00:10:28;100709.88;;;1.67;55.39
70206;BME280;57593;55.896;37.396;2023-03-19T00:11:05;100700.66;;;1.76;55.10
70206;BME280;57593;55.896;37.396;2023-03-19T00:11:36;100696.47;;;1.75;55.45
70206;BME280;57593;55.896;37.396;2023-03-19T00:12:07;100697.81;;;1.78;55.31
70206;BME280;57593;55.896;37.396;2023-03-19T00:12:38;100687.63;;;1.76;55.08
70206;BME280;57593;55.896;37.396;2023-03-19T00:13:09;100694.41;;;1.60;55.64
70206;BME280;57593;55.896;37.396;2023-03-19T00:13:39;100696.16;;;1.72;55.81
70206;BME280;57593;55.896;37.396;2023-03-19T00:14:10;100692.44;;;1.51;56.51
70206;BME280;57593;55.896;37.396;2023-03-19T00:14:41;100690.78;;;1.61;56.79
70206;BME280;57593;55.896;37.396;2023-03-19T00:15:12;100692.97;;;1.70;56.34
70206;BME280;57593;55.896;37.396;2023-03-19T00:15:43;100689.22;;;1.43;56.25
70206;BME280;57593;55.896;37.396;2023-03-19T00:16:14;100694.72;;;1.47;56.37
70206;BME280;57593;55.896;37.396;2023-03-19T00:16:45;100693.00;;;1.53;56.23
70206;BME280;57593;55.896;37.396;2023-03-19T00:17:15;100686.28;;;1.57;56.42
70206;BME280;57593;55.896;37.396;2023-03-19T00:17:46;100690.69;;;1.56;56.35
70206;BME280;57593;55.896;37.396;2023-03-19T00:18:17;100700.31;;;1.73;56.31
70206;BME280;57593;55.896;37.396;2023-03-19T00:18:47;100698.41;;;1.68;56.28
70206;BME280;57593;55.896;37.396;2023-03-19T00:19:18;100697.09;;;1.66;56.18
70206;BME280;57593;55.896;37.396;2023-03-19T00:19:49;100691.78;;;1.77;55.44
70206;BME280;57593;55.896;37.396;2023-03-19T00:20:20;100686.75;;;1.71;55.98
70206;BME280;57593;55.896;37.396;2023-03-19T00:20:51;100695.09;;;1.73;55.84
70206;BME280;57593;55.896;37.396;2023-03-19T00:21:22;100696.22;;;1.77;55.77
70206;BME280;57593;55.896;37.396;2023-03-19T00:21:53;100690.53;;;1.80;55.85
70206;BME280;57593;55.896;37.396;2023-03-19T00:22:23;100691.31;;;1.80;55.30
70206;BME280;57593;55.896;37.396;2023-03-19T00:22:54;100690.00;;;1.78;55.12
70206;BME280;57593;55.896;37.396;2023-03-19T00:23:25;100689.19;;;1.77;54.65
70206;BME280;57593;55.896;37.396;2023-03-19T00:23:57;100681.59;;;1.76;54.88
70206;BME280;57593;55.896;37.396;2023-03-19T00:24:31;100683.91;;;1.72;54.95
70206;BME280;57593;55.896;37.396;2023-03-19T00:25:02;100696.22;;;1.77;54.51
70206;BME280;57593;55.896;37.396;2023-03-19T00:25:33;100682.88;;;1.73;54.54
70206;BME280;57593;55.896;37.396;2023-03-19T00:26:04;100682.66;;;1.75;54.65
70206;BME280;57593;55.896;37.396;2023-03-19T00:26:36;100677.59;;;1.68;55.05
70206;BME280;57593;55.896;37.396;2023-03-19T00:27:07;100684.06;;;1.66;55.63
70206;BME280;57593;55.896;37.396;2023-03-19T00:27:37;100683.66;;;1.74;55.71
70206;BME280;57593;55.896;37.396;2023-03-19T00:28:08;100681.59;;;1.59;55.61
70206;BME280;57593;55.896;37.396;2023-03-19T00:28:39;100687.47;;;1.66;55.60
70206;BME280;57593;55.896;37.396;2023-03-19T00:29:10;100682.31;;;1.71;55.24
70206;BME280;57593;55.896;37.396;2023-03-19T00:29:42;100683.13;;;1.72;55.15
70206;BME280;57593;55.896;37.396;2023-03-19T00:30:14;100682.19;;;1.78;54.94
70206;BME280;57593;55.896;37.396;2023-03-19T00:30:45;100689.19;;;1.77;54.29
70206;BME280;57593;55.896;37.396;2023-03-19T00:31:16;100686.50;;;1.72;54.57
70206;BME280;57593;55.896;37.396;2023-03-19T00:31:47;100689.81;;;1.68;54.89
70206;BME280;57593;55.896;37.396;2023-03-19T00:32:17;100681.59;;;1.76;55.36
70206;BME280;57593;55.896;37.396;2023-03-19T00:32:48;100690.94;;;1.72;54.95
70206;BME280;57593;55.896;37.396;2023-03-19T00:33:19;100690.53;;;1.63;55.08
70206;BME280;57593;55.896;37.396;2023-03-19T00:33:50;100689.28;;;1.83;54.90
70206;BME280;57593;55.896;37.396;2023-03-19T00:34:21;100686.56;;;1.77;54.52
70206;BME280;57593;55.896;37.396;2023-03-19T00:34:52;100690.13;;;1.71;54.36
70206;BME280;57593;55.896;37.396;2023-03-19T00:35:23;100680.34;;;1.78;54.21
70206;BME280;57593;55.896;37.396;2023-03-19T00:35:54;100681.38;;;1.77;54.20
70206;BME280;57593;55.896;37.396;2023-03-19T00:36:25;100678.69;;;1.72;54.40
70206;BME280;57593;55.896;37.396;2023-03-19T00:36:57;100680.53;;;1.72;54.43
70206;BME280;57593;55.896;37.396;2023-03-19T00:37:28;100691.00;;;1.60;54.61
70206;BME280;57593;55.896;37.396;2023-03-19T00:37:59;100693.78;;;1.70;55.02
70206;BME280;57593;55.896;37.396;2023-03-19T00:38:30;100691.25;;;1.58;56.23
70206;BME280;57593;55.896;37.396;2023-03-19T00:39:02;100691.47;;;1.57;56.18
70206;BME280;57593;55.896;37.396;2023-03-19T00:39:32;100688.94;;;1.62;56.34
70206;BME280;57593;55.896;37.396;2023-03-19T00:40:03;100686.44;;;1.50;56.37
70206;BME280;57593;55.896;37.396;2023-03-19T00:40:34;100687.78;;;1.53;56.70
70206;BME280;57593;55.896;37.396;2023-03-19T00:41:05;100685.56;;;1.61;56.75
70206;BME280;57593;55.896;37.396;2023-03-19T00:41:37;100688.50;;;1.48;56.52
70206;BME280;57593;55.896;37.396;2023-03-19T00:42:08;100687.53;;;1.37;57.09
70206;BME280;57593;55.896;37.396;2023-03-19T00:42:38;100688.41;;;1.43;57.65
70206;BME280;57593;55.896;37.396;2023-03-19T00:43:10;100692.28;;;1.40;57.50
70206;BME280;57593;55.896;37.396;2023-03-19T00:43:40;100689.69;;;1.40;57.58
70206;BME280;57593;55.896;37.396;2023-03-19T00:44:11;100684.94;;;1.37;57.78
70206;BME280;57593;55.896;37.396;2023-03-19T00:44:42;100676.25;;;1.49;57.26
70206;BME280;57593;55.896;37.396;2023-03-19T00:45:12;100685.53;;;1.28;57.05
70206;BME280;57593;55.896;37.396;2023-03-19T00:45:43;100688.09;;;1.56;57.26
70206;BME280;57593;55.896;37.396;2023-03-19T00:46:13;100680.22;;;1.51;57.52
70206;BME280;57593;55.896;37.396;2023-03-19T00:46:47;100675.84;;;1.40;58.73
70206;BME280;57593;55.896;37.396;2023-03-19T00:47:18;100686.69;;;1.49;58.12
70206;BME280;57593;55.896;37.396;2023-03-19T00:47:49;100681.06;;;1.57;58.15
70206;BME280;57593;55.896;37.396;2023-03-19T00:48:20;100680.44;;;1.33;58.67
70206;BME280;57593;55.896;37.396;2023-03-19T00:48:51;100685.25;;;1.41;59.11
70206;BME280;57593;55.896;37.396;2023-03-19T00:49:24;100685.88;;;1.31;58.64
70206;BME280;57593;55.896;37.396;2023-03-19T00:49:55;100687.44;;;1.49;58.46
70206;BME280;57593;55.896;37.396;2023-03-19T00:50:26;100686.19;;;1.52;57.57
70206;BME280;57593;55.896;37.396;2023-03-19T00:51:07;100686.84;;;1.42;57.74
70206;BME280;57593;55.896;37.396;2023-03-19T00:51:38;100681.53;;;1.37;57.36
70206;BME280;57593;55.896;37.396;2023-03-19T00:52:13;100681.22;;;1.50;57.67
70206;BME280;57593;55.896;37.396;2023-03-19T00:52:43;100681.31;;;1.55;57.11
70206;BME280;57593;55.896;37.396;2023-03-19T00:53:14;100685.72;;;1.38;57.19
70206;BME280;57593;55.896;37.396;2023-03-19T00:53:45;100683.06;;;1.50;56.96
70206;BME280;57593;55.896;37.396;2023-03-19T00:54:15;100680.91;;;1.47;57.49
70206;BME280;57593;55.896;37.396;2023-03-19T00:54:47;100685.31;;;1.63;56.98
70206;BME280;57593;55.896;37.396;2023-03-19T00:55:17;100679.34;;;1.63;57.12
70206;BME280;57593;55.896;37.396;2023-03-19T00:55:48;100676.09;;;1.55;57.18
70206;BME280;57593;55.896;37.396;2023-03-19T00:56:20;100684.47;;;1.40;57.79
70206;BME280;57593;55.896;37.396;2023-03-19T00:56:50;100680.22;;;1.34;58.23
70206;BME280;57593;55.896;37.396;2023-03-19T00:57:21;100682.41;;;1.42;57.92
70206;BME280;57593;55.896;37.396;2023-03-19T00:57:54;100685.78;;;1.43;58.18
70206;BME280;57593;55.896;37.396;2023-03-19T00:58:25;100689.59;;;1.52;58.04
70206;BME280;57593;55.896;37.396;2023-03-19T00:58:56;100680.03;;;1.41;58.02
70206;BME280;57593;55.896;37.396;2023-03-19T00:59:27;100680.59;;;1.43;57.20
70206;BME280;57593;55.896;37.396;2023-03-19T00:59:57;100683.53;;;1.47;56.96
70206;BME280;57593;55.896;37.396;2023-03-19T01:00:28;100682.25;;;1.49;57.13
70206;BME280;57593;55.896;37.396;2023-03-19T01:00:59;100673.78;;;1.59;57.07
70206;BME280;57593;55.896;37.396;2023-03-19T01:01:30;100678.31;;;1.47;57.16
70206;BME280;57593;55.896;37.396;2023-03-19T01:02:02;100672.06;;;1.48;58.10
70206;BME280;57593;55.896;37.396;2023-03-19T01:02:33;100678.78;;;1.60;58.11
70206;BME280;57593;55.896;37.396;2023-03-19T01:03:04;100677.22;;;1.59;58.11
70206;BME280;57593;55.896;37.396;2023-03-19T01:03:36;100672.78;;;1.60;57.61
70206;BME280;57593;55.896;37.396;2023-03-19T01:04:08;100663.25;;;1.49;58.02
70206;BME280;57593;55.896;37.396;2023-03-19T01:04:40;100668.50;;;1.37;58.14
70206;BME280;57593;55.896;37.396;2023-03-19T01:05:11;100671.50;;;1.29;58.17
70206;BME280;57593;55.896;37.396;2023-03-19T01:05:43;100667.91;;;1.47;57.84
70206;BME280;57593;55.896;37.396;2023-03-19T01:06:13;100672.72;;;1.55;57.52
70206;BME280;57593;55.896;37.396;2023-03-19T01:06:44;100668.16;;;1.45;57.26
70206;BME280;57593;55.896;37.396;2023-03-19T01:07:15;100677.50;;;1.46;57.29
70206;BME280;57593;55.896;37.396;2023-03-19T01:07:46;100677.19;;;1.42;57.50
70206;BME280;57593;55.896;37.396;2023-03-19T01:08:18;100674.19;;;1.34;57.76
70206;BME280;57593;55.896;37.396;2023-03-19T01:08:48;100675.00;;;1.51;58.02
70206;BME280;57593;55.896;37.396;2023-03-19T01:09:19;100675.25;;;1.50;57.78
70206;BME280;57593;55.896;37.396;2023-03-19T01:09:50;100678.09;;;1.48;58.05
70206;BME280;57593;55.896;37.396;2023-03-19T01:10:22;100671.66;;;1.22;58.65
70206;BME280;57593;55.896;37.396;2023-03-19T01:10:53;100669.44;;;1.31;59.21
70206;BME280;57593;55.896;37.396;2023-03-19T01:11:24;100669.16;;;1.27;59.25
70206;BME280;57593;55.896;37.396;2023-03-19T01:11:55;100663.75;;;1.17;59.02
70206;BME280;57593;55.896;37.396;2023-03-19T01:12:26;100663.41;;;1.25;58.90
70206;BME280;57593;55.896;37.396;2023-03-19T01:12:56;100669.41;;;0.97;59.09
70206;BME280;57593;55.896;37.396;2023-03-19T01:13:27;100660.44;;;1.21;60.23
70206;BME280;57593;55.896;37.396;2023-03-19T01:13:58;100660.06;;;1.13;60.64
70206;BME280;57593;55.896;37.396;2023-03-19T01:14:29;100666.28;;;1.12;60.62
70206;BME280;57593;55.896;37.396;2023-03-19T01:14:59;100666.13;;;1.18;60.18
70206;BME280;57593;55.896;37.396;2023-03-19T01:15:33;100667.44;;;1.33;60.06
70206;BME280;57593;55.896;37.396;2023-03-19T01:16:04;100662.44;;;1.31;59.68
70206;BME280;57593;55.896;37.396;2023-03-19T01:16:36;100658.66;;;1.22;59.91
70206;BME280;57593;55.896;37.396;2023-03-19T01:17:06;100659.03;;;1.31;59.54
70206;BME280;57593;55.896;37.396;2023-03-19T01:17:37;100658.41;;;1.23;59.57
70206;BME280;57593;55.896;37.396;2023-03-19T01:18:09;100668.97;;;1.34;59.32
70206;BME280;57593;55.896;37.396;2023-03-19T01:18:41;100666.06;;;1.30;59.57
70206;BME280;57593;55.896;37.396;2023-03-19T01:19:11;100662.19;;;1.16;60.09
70206;BME280;57593;55.896;37.396;2023-03-19T01:19:43;100660.31;;;1.28;59.71
70206;BME280;57593;55.896;37.396;2023-03-19T01:20:14;100661.03;;;1.23;59.25
70206;BME280;57593;55.896;37.396;2023-03-19T01:20:48;100662.75;;;1.35;59.53
70206;BME280;57593;55.896;37.396;2023-03-19T01:21:19;100662.91;;;1.28;59.43
70206;BME280;57593;55.896;37.396;2023-03-19T01:21:52;100664.47;;;1.29;59.24
70206;BME280;57593;55.896;37.396;2023-03-19T01:22:25;100659.19;;;1.24;59.57
70206;BME280;57593;55.896;37.396;2023-03-19T01:23:01;100666.81;;;1.14;60.08
70206;BME280;57593;55.896;37.396;2023-03-19T01:23:31;100663.13;;;1.10;61.28
70206;BME280;57593;55.896;37.396;2023-03-19T01:24:02;100663.88;;;1.22;61.52
70206;BME280;57593;55.896;37.396;2023-03-19T01:24:33;100666.19;;;1.06;62.05
70206;BME280;57593;55.896;37.396;2023-03-19T01:25:05;100662.47;;;1.02;62.29
70206;BME280;57593;55.896;37.396;2023-03-19T01:25:38;100659.81;;;1.14;61.92
70206;BME280;57593;55.896;37.396;2023-03-19T01:26:09;100658.16;;;1.08;62.17
70206;BME280;57593;55.896;37.396;2023-03-19T01:26:41;100662.78;;;1.06;62.18
70206;BME280;57593;55.896;37.396;2023-03-19T01:27:22;100654.97;;;1.06;61.95
70206;BME280;57593;55.896;37.396;2023-03-19T01:27:53;100654.13;;;1.00;62.52
70206;BME280;57593;55.896;37.396;2023-03-19T01:28:24;100652.97;;;1.08;63.01
70206;BME280;57593;55.896;37.396;2023-03-19T01:28:56;100658.97;;;1.25;62.95
70206;BME280;57593;55.896;37.396;2023-03-19T01:29:28;100650.22;;;1.32;62.72
70206;BME280;57593;55.896;37.396;2023-03-19T01:30:01;100654.22;;;1.22;62.28
70206;BME280;57593;55.896;37.396;2023-03-19T01:30:51;100657.47;;;1.13;62.63
70206;BME280;57593;55.896;37.396;2023-03-19T01:31:40;100650.66;;;1.12;62.79
70206;BME280;57593;55.896;37.396;2023-03-19T01:32:37;100652.66;;;1.04;64.08
70206;BME280;57593;55.896;37.396;2023-03-19T01:33:33;100657.75;;;0.99;64.21
70206;BME280;57593;55.896;37.396;2023-03-19T01:34:06;100665.72;;;1.10;64.25
70206;BME280;57593;55.896;37.396;2023-03-19T01:34:43;100656.88;;;1.11;63.39
70206;BME280;57593;55.896;37.396;2023-03-19T01:35:17;100660.19;;;1.06;62.27
70206;BME280;57593;55.896;37.396;2023-03-19T01:35:47;100651.59;;;1.05;62.62
70206;BME280;57593;55.896;37.396;2023-03-19T01:36:19;100659.63;;;1.04;63.51
70206;BME280;57593;55.896;37.396;2023-03-19T01:37:07;100649.16;;;0.99;64.08
70206;BME280;57593;55.896;37.396;2023-03-19T01:37:38;100660.81;;;0.96;64.30
70206;BME280;57593;55.896;37.396;2023-03-19T01:38:12;100648.47;;;1.03;64.32
70206;BME280;57593;55.896;37.396;2023-03-19T01:38:44;100646.47;;;1.11;63.87
70206;BME280;57593;55.896;37.396;2023-03-19T01:39:18;100647.34;;;0.99;63.49
70206;BME280;57593;55.896;37.396;2023-03-19T01:39:50;100653.13;;;1.01;64.40
70206;BME280;57593;55.896;37.396;2023-03-19T01:40:20;100646.00;;;1.14;64.63
70206;BME280;57593;55.896;37.396;2023-03-19T01:40:51;100648.75;;;1.07;63.59
70206;BME280;57593;55.896;37.396;2023-03-19T01:41:23;100645.38;;;1.06;63.79
70206;BME280;57593;55.896;37.396;2023-03-19T01:42:00;100652.66;;;1.04;63.99
70206;BME280;57593;55.896;37.396;2023-03-19T01:43:21;100652.31;;;1.01;63.67
70206;BME280;57593;55.896;37.396;2023-03-19T01:43:59;100645.16;;;1.08;63.05
70206;BME280;57593;55.896;37.396;2023-03-19T01:44:40;100643.16;;;0.98;63.38
70206;BME280;57593;55.896;37.396;2023-03-19T01:45:33;100644.50;;;1.01;64.12
70206;BME280;57593;55.896;37.396;2023-03-19T01:46:28;100642.19;;;0.87;64.21
70206;BME280;57593;55.896;37.396;2023-03-19T01:47:32;100650.97;;;0.98;64.17
70206;BME280;57593;55.896;37.396;2023-03-19T01:49:06;100639.31;;;0.72;65.84
70206;BME280;57593;55.896;37.396;2023-03-19T01:49:38;100639.50;;;0.82;65.98
70206;BME280;57593;55.896;37.396;2023-03-19T01:50:42;100641.06;;;0.54;67.05
70206;BME280;57593;55.896;37.396;2023-03-19T01:51:33;100637.97;;;0.69;67.36
70206;BME280;57593;55.896;37.396;2023-03-19T01:52:23;100633.84;;;0.57;68.23
70206;BME280;57593;55.896;37.396;2023-03-19T01:53:18;100637.50;;;0.73;67.96
70206;BME280;57593;55.896;37.396;2023-03-19T01:54:11;100633.16;;;0.61;68.03
70206;BME280;57593;55.896;37.396;2023-03-19T01:55:04;100636.22;;;0.46;69.72
70206;BME280;57593;55.896;37.396;2023-03-19T01:56:12;100632.84;;;0.46;70.21
70206;BME280;57593;55.896;37.396;2023-03-19T01:57:06;100633.63;;;0.46;70.33
70206;BME280;57593;55.896;37.396;2023-03-19T01:57:52;100637.50;;;0.44;70.07
70206;BME280;57593;55.896;37.396;2023-03-19T01:58:59;100636.84;;;0.37;70.71
70206;BME280;57593;55.896;37.396;2023-03-19T01:59:52;100637.84;;;0.35;71.80
70206;BME280;57593;55.896;37.396;2023-03-19T02:00:23;100640.22;;;0.37;71.87
70206;BME280;57593;55.896;37.396;2023-03-19T02:00:57;100640.66;;;0.34;72.77
70206;BME280;57593;55.896;37.396;2023-03-19T02:01:31;100635.94;;;0.31;74.12
70206;BME280;57593;55.896;37.396;2023-03-19T02:02:26;100635.59;;;0.39;73.27
70206;BME280;57593;55.896;37.396;2023-03-19T02:03:01;100630.47;;;0.44;72.91
70206;BME280;57593;55.896;37.396;2023-03-19T02:03:51;100635.78;;;0.49;71.98
70206;BME280;57593;55.896;37.396;2023-03-19T02:04:30;100633.31;;;0.43;71.77
70206;BME280;57593;55.896;37.396;2023-03-19T02:05:11;100629.09;;;0.53;71.93
70206;BME280;57593;55.896;37.396;2023-03-19T02:05:44;100625.94;;;0.51;71.69
70206;BME280;57593;55.896;37.396;2023-03-19T02:06:18;100631.16;;;0.51;71.63
70206;BME280;57593;55.896;37.396;2023-03-19T02:06:52;100634.06;;;0.55;71.51
70206;BME280;57593;55.896;37.396;2023-03-19T02:07:24;100633.16;;;0.49;71.36
70206;BME280;57593;55.896;37.396;2023-03-19T02:08:00;100625.88;;;0.34;72.20
70206;BME280;57593;55.896;37.396;2023-03-19T02:08:33;100627.22;;;0.37;72.56
70206;BME280;57593;55.896;37.396;2023-03-19T02:09:05;100633.03;;;0.56;72.51
70206;BME280;57593;55.896;37.396;2023-03-19T02:09:37;100633.63;;;0.46;72.53
70206;BME280;57593;55.896;37.396;2023-03-19T02:10:14;100635.84;;;0.54;72.60
70206;BME280;57593;55.896;37.396;2023-03-19T02:10:46;100630.25;;;0.46;73.41
70206;BME280;57593;55.896;37.396;2023-03-19T02:11:18;100633.16;;;0.61;72.90
70206;BME280;57593;55.896;37.396;2023-03-19T02:11:49;100628.97;;;0.60;72.66
70206;BME280;57593;55.896;37.396;2023-03-19T02:12:20;100631.69;;;0.53;72.18
70206;BME280;57593;55.896;37.396;2023-03-19T02:12:51;100619.72;;;0.52;72.69
70206;BME280;57593;55.896;37.396;2023-03-19T02:13:22;100622.06;;;0.66;72.18
70206;BME280;57593;55.896;37.396;2023-03-19T02:13:52;100618.41;;;0.67;72.51
70206;BME280;57593;55.896;37.396;2023-03-19T02:14:23;100615.56;;;0.68;72.27
70206;BME280;57593;55.896;37.396;2023-03-19T02:14:54;100618.53;;;0.72;72.16
70206;BME280;57593;55.896;37.396;2023-03-19T02:15:25;100618.06;;;0.75;71.91
70206;BME280;57593;55.896;37.396;2023-03-19T02:15:56;100627.41;;;0.76;71.92
70206;BME280;57593;55.896;37.396;2023-03-19T02:16:28;100627.66;;;0.75;71.81
70206;BME280;57593;55.896;37.396;2023-03-19T02:16:59;100621.53;;;0.81;71.78
70206;BME280;57593;55.896;37.396;2023-03-19T02:17:31;100622.63;;;0.85;71.16
70206;BME280;57593;55.896;37.396;2023-03-19T02:18:02;100619.06;;;0.74;71.30
70206;BME280;57593;55.896;37.396;2023-03-19T02:18:34;100620.03;;;0.85;71.45
70206;BME280;57593;55.896;37.396;2023-03-19T02:19:09;100613.91;;;0.91;70.96
70206;BME280;57593;55.896;37.396;2023-03-19T02:19:51;100608.50;;;0.81;71.71
70206;BME280;57593;55.896;37.396;2023-03-19T02:21:29;100611.06;;;0.93;70.56
70206;BME280;57593;55.896;37.396;2023-03-19T02:22:01;100612.31;;;0.90;70.34
70206;BME280;57593;55.896;37.396;2023-03-19T02:22:34;100617.19;;;0.86;70.32
70206;BME280;57593;55.896;37.396;2023-03-19T02:23:14;100614.84;;;0.85;70.15
70206;BME280;57593;55.896;37.396;2023-03-19T02:24:55;100626.19;;;0.79;70.64
70206;BME280;57593;55.896;37.396;2023-03-19T02:26:22;100623.66;;;0.84;71.32
70206;BME280;57593;55.896;37.396;2023-03-19T02:26:56;100619.31;;;0.73;71.36
70206;BME280;57593;55.896;37.396;2023-03-19T02:27:28;100617.59;;;0.78;71.94
70206;BME280;57593;55.896;37.396;2023-03-19T02:27:59;100614.19;;;0.78;71.33
70206;BME280;57593;55.896;37.396;2023-03-19T02:28:31;100615.13;;;0.71;71.79
70206;BME280;57593;55.896;37.396;2023-03-19T02:29:03;100616.66;;;0.56;72.68
70206;BME280;57593;55.896;37.396;2023-03-19T02:29:37;100615.81;;;0.67;73.47
70206;BME280;57593;55.896;37.396;2023-03-19T02:30:27;100609.59;;;0.68;73.86
70206;BME280;57593;55.896;37.396;2023-03-19T02:30:59;100610.38;;;0.68;73.92
70206;BME280;57593;55.896;37.396;2023-03-19T02:31:30;100617.16;;;0.69;74.18
70206;BME280;57593;55.896;37.396;2023-03-19T02:32:00;100608.81;;;0.67;74.01
70206;BME280;57593;55.896;37.396;2023-03-19T02:32:33;100614.56;;;0.69;73.91
70206;BME280;57593;55.896;37.396;2023-03-19T02:33:03;100611.06;;;0.64;73.54
70206;BME280;57593;55.896;37.396;2023-03-19T02:33:34;100616.38;;;0.69;73.47
70206;BME280;57593;55.896;37.396;2023-03-19T02:34:41;100620.78;;;0.68;73.92
70206;BME280;57593;55.896;37.396;2023-03-19T02:35:12;100618.53;;;0.72;73.61
70206;BME280;57593;55.896;37.396;2023-03-19T02:35:46;100617.63;;;0.66;74.34
70206;BME280;57593;55.896;37.396;2023-03-19T02:36:21;100625.66;;;0.65;74.64
70206;BME280;57593;55.896;37.396;2023-03-19T02:37:00;100612.63;;;0.77;74.51
70206;BME280;57593;55.896;37.396;2023-03-19T02:37:33;100620.97;;;0.79;74.29
70206;BME280;57593;55.896;37.396;2023-03-19T02:38:04;100628.78;;;0.79;74.05
70206;BME280;57593;55.896;37.396;2023-03-19T02:38:35;100624.03;;;0.76;74.03
70206;BME280;57593;55.896;37.396;2023-03-19T02:39:25;100619.31;;;0.73;74.03
70206;BME280;57593;55.896;37.396;2023-03-19T02:40:03;100619.38;;;0.78;73.32
70206;BME280;57593;55.896;37.396;2023-03-19T02:40:40;100610.38;;;0.68;73.31
70206;BME280;57593;55.896;37.396;2023-03-19T02:41:12;100617.41;;;0.68;73.36
70206;BME280;57593;55.896;37.396;2023-03-19T02:41:44;100610.88;;;0.82;73.10
70206;BME280;57593;55.896;37.396;2023-03-19T02:42:17;100609.31;;;0.81;72.91
70206;BME280;57593;55.896;37.396;2023-03-19T02:42:48;100606.97;;;0.80;72.98
70206;BME280;57593;55.896;37.396;2023-03-19T02:43:20;100624.06;;;0.64;73.44
70206;BME280;57593;55.896;37.396;2023-03-19T02:43:52;100615.44;;;0.75;73.56
70206;BME280;57593;55.896;37.396;2023-03-19T02:44:24;100616.03;;;0.65;73.47
70206;BME280;57593;55.896;37.396;2023-03-19T02:44:56;100616.94;;;0.71;74.05
70206;BME280;57593;55.896;37.396;2023-03-19T02:45:28;100619.84;;;0.75;73.75
70206;BME280;57593;55.896;37.396;2023-03-19T02:46:00;100622.78;;;0.78;74.02
70206;BME280;57593;55.896;37.396;2023-03-19T02:46:31;100612.50;;;0.71;74.01
70206;BME280;57593;55.896;37.396;2023-03-19T02:47:03;100607.69;;;0.63;74.26
70206;BME280;57593;55.896;37.396;2023-03-19T02:47:33;100612.84;;;0.75;74.25
70206;BME280;57593;55.896;37.396;2023-03-19T02:48:05;100611.41;;;0.67;74.35
70206;BME280;57593;55.896;37.396;2023-03-19T02:48:36;100611.72;;;0.71;74.30
70206;BME280;57593;55.896;37.396;2023-03-19T02:49:07;100606.84;;;0.75;74.01
70206;BME280;57593;55.896;37.396;2023-03-19T02:49:37;100608.66;;;0.74;74.10
70206;BME280;57593;55.896;37.396;2023-03-19T02:50:09;100615.56;;;0.68;74.42
70206;BME280;57593;55.896;37.396;2023-03-19T02:50:40;100612.50;;;0.71;74.14
70206;BME280;57593;55.896;37.396;2023-03-19T02:51:10;100615.00;;;0.78;74.05
70206;BME280;57593;55.896;37.396;2023-03-19T02:51:42;100613.13;;;0.91;73.61
70206;BME280;57593;55.896;37.396;2023-03-19T02:52:13;100607.69;;;0.92;72.94
70206;BME280;57593;55.896;37.396;2023-03-19T02:52:44;100609.69;;;0.73;73.22
70206;BME280;57593;55.896;37.396;2023-03-19T02:53:15;100605.09;;;0.63;74.17
70206;BME280;57593;55.896;37.396;2023-03-19T02:53:45;100611.19;;;0.69;74.79
70206;BME280;57593;55.896;37.396;2023-03-19T02:54:16;100610.28;;;0.63;74.87
70206;BME280;57593;55.896;37.396;2023-03-19T02:54:47;100612.44;;;0.66;75.02
70206;BME280;57593;55.896;37.396;2023-03-19T02:55:17;100607.66;;;0.75;74.62
70206;BME280;57593;55.896;37.396;2023-03-19T02:55:48;100613.22;;;0.67;74.37
70206;BME280;57593;55.896;37.396;2023-03-19T02:56:19;100614.56;;;0.69;74.76
70206;BME280;57593;55.896;37.396;2023-03-19T02:56:49;100618.88;;;0.64;75.32
70206;BME280;57593;55.896;37.396;2023-03-19T02:57:22;100611.63;;;0.37;77.04
70206;BME280;57593;55.896;37.396;2023-03-19T02:57:52;100606.81;;;0.58;77.08
70206;BME280;57593;55.896;37.396;2023-03-19T02:58:24;100609.75;;;0.61;76.85
70206;BME280;57593;55.896;37.396;2023-03-19T02:58:55;100611.13;;;0.52;76.76
70206;BME280;57593;55.896;37.396;2023-03-19T02:59:25;100613.28;;;0.55;77.01
70206;BME280;57593;55.896;37.396;2023-03-19T02:59:56;100612.16;;;0.51;77.06
70206;BME280;57593;55.896;37.396;2023-03-19T03:00:27;100604.44;;;0.56;76.84
70206;BME280;57593;55.896;37.396;2023-03-19T03:00:57;100606.25;;;0.56;76.79